Marthasville, Missouri
Current Conditions -  °F | °C
As of 9:35 AM on Friday 19 Dec 2014 (Local Time) from KFYG Reporting Station
Haze Haze  
Wind Chill:   Ceiling: 2500
Heat Index:   Visibility: 5mi
Dew Point: -2°   Wind: 0mph
Humidity: 81%   Direction: NA
Pressure: 30.33"   Gusts: NA
Location:  38.63°N, 91.06°W
Report Text: KFYG 191535Z AUTO 00000KT 5SM HZ OVC025 01/M02 A3033 RMK AO2
Loading
Personal Weather Stations






























Interactive Weather Map New forecast layout! Learn more

10-Day Weather Forecast

Advertisements
Track Severe Weather on mobile